Time;durP1;ratioP1;P1;durP2;ratioP2;P2;SDS_P1;SDS_P2;PMS_P1;PMS_P2;Temp;Humidity;BMP_temperature;BMP_pressure;BME280_temperature;BME280_humidity;BME280_pressure;Samples;Min_cycle;Max_cycle;Signal;HPM_P1;HPM_P2
2023/02/09 06:15:00;;;;;;;;;96.00;75.33;;;;;-0.48;100.00;102974.97;4862714;29;49539;-71
2023/02/09 06:17:26;;;;;;;;;94.67;75.67;;;;;0.02;100.00;103074.63;4862653;29;49767;-69
2023/02/09 06:19:51;;;;;;;;;98.00;73.00;;;;;-0.31;100.00;103000.78;4876423;29;52721;-69
2023/02/09 06:22:17;;;;;;;;;90.33;70.67;;;;;0.06;100.00;103078.41;4872227;29;49669;-71
2023/02/09 06:24:42;;;;;;;;;99.67;76.33;;;;;-0.41;100.00;103007.44;4857605;29;50519;-67
2023/02/09 06:27:08;;;;;;;;;89.33;71.33;;;;;-0.20;100.00;103034.50;4863083;29;49547;-71
2023/02/09 06:29:33;;;;;;;;;93.00;72.33;;;;;-1.84;100.00;102784.97;4856456;29;49927;-71
2023/02/09 06:31:59;;;;;;;;;93.00;72.00;;;;;-0.38;100.00;103013.84;4856268;29;49542;-71
2023/02/09 06:34:24;;;;;;;;;99.33;73.67;;;;;-0.62;100.00;102973.56;4857036;29;49942;-76
2023/02/09 06:36:50;;;;;;;;;103.67;78.00;;;;;-1.51;100.00;102821.91;4857519;29;50018;-71
2023/02/09 06:39:15;;;;;;;;;96.67;72.00;;;;;-0.96;100.00;102901.31;4857231;29;50799;-68
2023/02/09 06:41:41;;;;;;;;;93.33;73.67;;;;;-0.26;100.00;103045.13;4857482;29;49759;-71
2023/02/09 06:44:06;;;;;;;;;96.00;75.67;;;;;-0.55;100.00;102992.25;4857004;29;50193;-74
2023/02/09 06:46:32;;;;;;;;;94.67;73.00;;;;;-0.06;100.00;103091.03;4857021;29;49793;-71
2023/02/09 06:48:57;;;;;;;;;92.33;72.00;;;;;-0.04;100.00;103092.06;4856207;29;49884;-70
2023/02/09 06:51:23;;;;;;;;;90.33;69.67;;;;;0.03;100.00;103094.53;4855790;29;49712;-77
2023/02/09 06:53:48;;;;;;;;;92.33;71.33;;;;;-0.89;100.00;102933.00;4856142;29;50559;-76
2023/02/09 06:56:14;;;;;;;;;94.67;72.33;;;;;-0.29;100.00;103049.97;4855448;29;49878;-71
2023/02/09 06:58:40;;;;;;;;;92.33;72.00;;;;;0.02;100.00;103104.72;4856081;29;49913;-66
2023/02/09 07:01:14;;;;;;;;;96.33;75.00;;;;;-0.93;100.00;102943.78;4856758;29;49668;-69
2023/02/09 07:03:39;;;;;;;;;93.00;70.00;;;;;-0.62;100.00;102989.06;4858309;29;49649;-70
2023/02/09 07:06:11;;;;;;;;;102.33;78.00;;;;;-0.52;100.00;103015.78;4856112;29;49999;-69
2023/02/09 07:08:36;;;;;;;;;89.67;70.67;;;;;-0.24;100.00;103063.34;4851030;29;50838;-68
2023/02/09 07:11:04;;;;;;;;;97.67;73.00;;;;;-0.47;100.00;103019.75;4851388;29;49841;-69
2023/02/09 07:13:30;;;;;;;;;93.00;71.33;;;;;-1.52;100.00;102840.69;4856018;29;50098;-73
2023/02/09 07:15:57;;;;;;;;;96.00;75.33;;;;;-0.76;100.00;102957.50;4856078;29;49732;-70
2023/02/09 07:18:23;;;;;;;;;89.33;73.33;;;;;-0.13;100.00;103080.81;4856005;29;51542;-68
2023/02/09 07:21:01;;;;;;;;;104.33;78.33;;;;;-0.41;100.00;103026.41;4856077;29;49882;-71
2023/02/09 07:23:27;;;;;;;;;92.67;71.33;;;;;-0.05;100.00;103108.34;4856083;29;49976;-68
2023/02/09 07:25:53;;;;;;;;;96.67;73.67;;;;;-0.18;100.00;103131.09;4856289;29;49693;-69
2023/02/09 07:28:21;;;;;;;;;103.00;76.00;;;;;0.04;100.00;103121.25;4855742;29;49992;-70
2023/02/09 07:30:51;;;;;;;;;97.67;76.00;;;;;-0.08;100.00;103108.03;4855879;29;49935;-69
2023/02/09 07:33:17;;;;;;;;;104.33;79.00;;;;;-0.91;100.00;103001.56;4855915;29;49623;-70
2023/02/09 07:35:43;;;;;;;;;97.33;74.00;;;;;-0.41;100.00;103029.00;4856073;29;49728;-70
2023/02/09 07:38:09;;;;;;;;;91.67;73.33;;;;;-0.26;100.00;103058.03;4869876;29;52852;-72
2023/02/09 07:40:36;;;;;;;;;99.33;76.00;;;;;-0.05;100.00;103100.59;4855765;29;50401;-73
2023/02/09 07:43:02;;;;;;;;;96.33;74.00;;;;;-0.14;100.00;103061.84;4858306;29;49946;-68
2023/02/09 07:45:28;;;;;;;;;99.00;78.00;;;;;-0.76;100.00;102944.59;4859083;29;49602;-73
2023/02/09 07:47:53;;;;;;;;;105.00;81.67;;;;;-0.33;100.00;103025.53;4858516;29;49849;-69
2023/02/09 07:50:18;;;;;;;;;103.33;76.00;;;;;0.03;100.00;103107.44;4858831;29;49942;-68
2023/02/09 07:52:44;;;;;;;;;96.00;72.00;;;;;-0.50;100.00;102989.38;4858882;29;49792;-69
2023/02/09 07:55:09;;;;;;;;;82.67;61.00;;;;;0.13;100.00;103104.09;4858929;29;50233;-69
2023/02/09 07:57:34;;;;;;;;;94.67;72.00;;;;;0.47;100.00;103153.19;4858505;29;50879;-68
2023/02/09 08:00:00;;;;;;;;;99.67;74.33;;;;;0.14;100.00;103096.50;4858606;29;49835;-68
2023/02/09 08:02:32;;;;;;;;;91.33;73.67;;;;;0.23;100.00;103109.44;4858700;29;49814;-68
2023/02/09 08:04:59;;;;;;;;;97.33;74.00;;;;;-0.11;100.00;103040.56;4858908;29;49776;-68
2023/02/09 08:07:26;;;;;;;;;96.00;75.33;;;;;0.67;100.00;103170.66;4858279;29;50830;-72
2023/02/09 08:09:52;;;;;;;;;99.33;76.67;;;;;0.15;100.00;103080.25;4858560;29;49794;-70
2023/02/09 08:12:58;;;;;;;;;102.00;76.67;;;;;0.39;100.00;103125.69;4857957;29;49706;-71
2023/02/09 08:15:07;;;;;;;;;99.67;76.00;;;;;0.74;100.00;103169.59;4857492;29;49863;-75
2023/02/09 08:17:32;;;;;;;;;97.50;75.25;;;;;0.73;100.00;103183.28;4858007;29;50017;-68
2023/02/09 08:20:03;;;;;;;;;83.67;66.33;;;;;0.97;100.00;103205.50;4858436;29;49900;-77
2023/02/09 08:22:37;;;;;;;;;103.50;82.00;;;;;0.62;100.00;103125.38;4859794;29;49920;-83
2023/02/09 08:25:04;;;;;;;;;108.00;87.50;;;;;-0.25;100.00;102969.53;4859565;29;50613;-77
2023/02/09 08:27:30;;;;;;;;;98.00;73.00;;;;;-1.02;100.00;102856.88;4858766;29;49810;-69
2023/02/09 08:29:58;;;;;;;;;105.67;80.33;;;;;1.18;100.00;103211.84;4858205;29;50315;-67
2023/02/09 08:32:23;;;;;;;;;111.50;85.00;;;;;1.14;100.00;103192.53;4858065;29;49873;-69
2023/02/09 08:34:49;;;;;;;;;102.25;77.50;;;;;0.98;100.00;103159.09;4858275;29;49772;-70
2023/02/09 08:37:14;;;;;;;;;104.25;80.75;;;;;1.29;100.00;103204.38;4858166;29;50827;-70
2023/02/09 08:39:39;;;;;;;;;113.00;89.00;;;;;0.57;100.00;103083.53;4858387;29;49836;-71
2023/02/09 08:42:05;;;;;;;;;103.00;86.00;;;;;1.37;100.00;103198.25;4858448;29;49855;-73
2023/02/09 08:44:30;;;;;;;;;104.33;81.67;;;;;0.80;100.00;103103.91;4858516;29;50029;-70
2023/02/09 08:46:56;;;;;;;;;107.00;90.00;;;;;1.23;100.00;103164.03;4857895;29;49886;-74
2023/02/09 08:49:21;;;;;;;;;110.00;81.33;;;;;1.22;100.00;103146.69;4858003;29;49697;-73
2023/02/09 08:51:46;;;;;;;;;100.00;77.67;;;;;1.57;100.00;103204.44;4858118;29;50490;-72
2023/02/09 08:54:12;;;;;;;;;113.25;94.25;;;;;1.38;100.00;103189.72;4857647;29;49787;-71
2023/02/09 08:56:37;;;;;;;;;106.50;88.25;;;;;1.53;100.00;103166.06;4858052;29;49594;-69
2023/02/09 08:59:03;;;;;;;;;103.50;82.50;;;;;1.77;100.00;103199.47;4855322;29;49638;-69
2023/02/09 09:01:28;;;;;;;;;109.50;87.75;;;;;1.58;100.00;103155.38;4857961;29;50052;-67
2023/02/09 09:03:54;;;;;;;;;104.50;84.75;;;;;1.41;100.00;103114.03;4857888;29;49787;-67
2023/02/09 09:06:20;;;;;;;;;109.50;88.75;;;;;1.88;100.00;103187.53;4857432;29;50885;-71
2023/02/09 09:08:46;;;;;;;;;111.50;90.00;;;;;2.20;100.00;103237.19;4871919;29;50370;-67
2023/02/09 09:11:13;;;;;;;;;111.25;93.50;;;;;2.12;100.00;103215.72;4858133;29;49753;-74
2023/02/09 09:13:39;;;;;;;;;104.75;85.50;;;;;1.85;100.00;103161.38;4858181;29;49912;-73
2023/02/09 09:16:05;;;;;;;;;109.00;93.00;;;;;2.35;100.00;103225.69;4857642;29;51028;-72
2023/02/09 09:18:31;;;;;;;;;104.25;85.50;;;;;1.87;100.00;103127.06;4858167;29;49727;-71
2023/02/09 09:20:57;;;;;;;;;119.50;96.50;;;;;2.34;100.00;103191.84;4858037;29;49704;-73
2023/02/09 09:23:22;;;;;;;;;112.25;95.25;;;;;2.24;100.00;103162.47;4858215;29;49974;-73
2023/02/09 09:25:48;;;;;;;;;113.75;102.50;;;;;1.89;100.00;103090.94;4857004;29;49815;-67
2023/02/09 09:28:14;;;;;;;;;108.75;86.75;;;;;2.02;100.00;103101.66;4857183;29;49850;-66
2023/02/09 09:30:39;;;;;;;;;128.75;103.50;;;;;1.96;100.00;103076.09;4866674;29;50012;-66
2023/02/09 09:33:04;;;;;;;;;117.50;106.25;;;;;2.81;100.00;103237.72;4857049;29;49773;-69
2023/02/09 09:35:30;;;;;;;;;112.75;98.00;;;;;2.51;100.00;103160.56;4857230;29;49709;-67
2023/02/09 09:37:57;;;;;;;;;123.25;108.75;;;;;2.44;100.00;103140.06;4871639;29;49958;-66
2023/02/09 09:40:27;;;;;;;;;112.50;100.50;;;;;1.65;100.00;102991.19;4857538;29;50028;-66
2023/02/09 09:42:58;;;;;;;;;112.25;99.00;;;;;2.77;100.00;103162.97;4857474;29;50276;-65
2023/02/09 09:45:26;;;;;;;;;105.00;91.00;;;;;2.51;100.00;103100.94;4851029;29;49967;-66
2023/02/09 09:47:55;;;;;;;;;105.67;88.00;;;;;3.23;100.00;103243.25;4856972;29;49966;-66
2023/02/09 09:50:41;;;;;;;;;80.50;60.50;;;;;3.30;100.00;103222.28;4851243;29;50106;-68
2023/02/09 09:53:27;;;;;;;;;104.33;85.67;;;;;3.45;100.00;103241.78;4857500;29;50145;-72
2023/02/09 09:56:03;;;;;;;;;101.33;83.33;;;;;3.32;100.00;103202.53;4856927;29;49873;-66
2023/02/09 09:58:31;;;;;;;;;100.00;79.00;;;;;3.30;100.00;103193.72;4855509;29;49906;-74
2023/02/09 10:00:56;;;;;;;;;93.00;71.67;;;;;3.03;100.00;103135.06;4858168;29;49894;-79
2023/02/09 10:03:23;;;;;;;;;86.33;67.67;;;;;3.28;100.00;103165.78;4857677;29;49993;-73
2023/02/09 10:05:52;;;;;;;;;91.33;69.00;;;;;3.70;100.00;103242.28;4857201;29;49926;-77
2023/02/09 10:08:22;;;;;;;;;98.33;73.67;;;;;2.82;100.00;103096.84;4857443;29;49752;-79
2023/02/09 10:11:04;;;;;;;;;92.00;70.00;;;;;2.76;100.00;103058.28;4856533;29;49824;-74
2023/02/09 10:13:39;;;;;;;;;94.33;72.00;;;;;3.04;100.00;103134.28;4857011;29;49955;-73
2023/02/09 10:16:19;;;;;;;;;84.67;68.67;;;;;3.09;100.00;103094.09;4856814;29;50614;-78
2023/02/09 10:18:49;;;;;;;;;86.67;65.67;;;;;2.97;100.00;103069.66;4857012;29;49802;-72
2023/02/09 10:21:15;;;;;;;;;87.67;66.33;;;;;2.90;100.00;103043.97;4856744;29;49900;-72
2023/02/09 10:23:43;;;;;;;;;88.67;68.67;;;;;4.13;100.00;103240.81;4856823;29;49716;-72
2023/02/09 10:26:09;;;;;;;;;82.33;64.33;;;;;4.19;100.00;103232.66;4856089;29;50486;-73
2023/02/09 10:28:39;;;;;;;;;84.67;63.67;;;;;3.36;100.00;103094.69;4856691;29;50041;-75
2023/02/09 10:31:16;;;;;;;;;82.00;62.67;;;;;4.24;100.00;103231.34;4856384;29;50177;-73
2023/02/09 10:33:44;;;;;;;;;79.33;61.00;;;;;4.11;100.00;103211.19;4856801;29;49762;-75
2023/02/09 10:36:24;;;;;;;;;78.33;62.67;;;;;3.47;100.00;103060.16;4856326;29;50742;-73
2023/02/09 10:38:52;;;;;;;;;66.67;54.00;;;;;4.35;100.00;103214.06;4856326;29;49763;-73
2023/02/09 10:41:19;;;;;;;;;63.00;52.33;;;;;2.68;100.00;102944.28;4856148;29;49664;-73
2023/02/09 10:43:50;;;;;;;;;71.33;55.67;;;;;4.34;100.00;103194.94;4856956;29;49926;-73
2023/02/09 10:46:19;;;;;;;;;67.33;55.67;;;;;3.45;100.00;103043.53;4850651;29;50070;-73
2023/02/09 10:48:47;;;;;;;;;75.67;58.00;;;;;2.63;100.00;102860.00;4849562;29;49974;-72
2023/02/09 10:51:27;;;;;;;;;68.00;53.67;;;;;4.62;100.00;103195.56;4850038;29;49758;-72
2023/02/09 10:54:03;;;;;;;;;62.33;47.33;;;;;4.78;100.00;103206.47;4855961;29;49915;-73
2023/02/09 10:56:48;;;;;;;;;62.67;51.00;;;;;4.37;100.00;103122.41;4855898;29;50429;-73
2023/02/09 10:59:19;;;;;;;;;62.00;51.00;;;;;3.53;100.00;102987.06;4855270;29;49996;-75
2023/02/09 11:01:56;;;;;;;;;60.75;45.00;;;;;3.83;100.00;103048.47;4856727;29;49845;-74
2023/02/09 11:04:24;;;;;;;;;48.25;44.00;;;;;3.45;100.00;102932.78;4856658;29;49611;-72
2023/02/09 11:06:58;;;;;;;;;66.67;52.00;;;;;4.01;100.00;103035.34;4856141;29;49814;-72
2023/02/09 11:09:33;;;;;;;;;64.25;50.00;;;;;4.90;100.00;103172.72;4854379;29;49889;-73
2023/02/09 11:11:59;;;;;;;;;62.00;50.75;;;;;3.35;100.00;102905.94;4855846;29;49768;-72
2023/02/09 11:14:25;;;;;;;;;63.00;52.00;;;;;4.82;100.00;103107.03;4856194;29;49857;-73
2023/02/09 11:16:58;;;;;;;;;61.50;50.50;;;;;5.31;100.00;103196.97;4856937;29;50890;-72
2023/02/09 11:19:45;;;;;;;;;63.00;51.67;;;;;5.35;100.00;103199.00;4859175;29;49688;-72
2023/02/09 11:22:18;;;;;;;;;61.00;51.00;;;;;4.75;99.64;103083.94;4859368;29;49844;-72
2023/02/09 11:24:47;;;;;;;;;64.00;52.50;;;;;5.50;100.00;103198.41;4859534;29;49843;-73
2023/02/09 11:27:27;;;;;;;;;64.50;52.00;;;;;5.54;99.79;103203.09;4872313;29;52618;-74
2023/02/09 11:29:52;;;;;;;;;65.33;53.33;;;;;5.60;98.80;103208.81;4858818;29;49848;-73
2023/02/09 11:32:43;;;;;;;;;63.00;53.33;;;;;5.50;99.95;103181.09;4859353;29;49894;-74
2023/02/09 11:35:11;;;;;;;;;56.67;44.00;;;;;5.56;98.90;103171.16;4859398;29;49986;-72
2023/02/09 11:37:59;;;;;;;;;67.33;54.00;;;;;5.77;98.77;103192.78;4859099;29;51274;-72
2023/02/09 11:40:30;;;;;;;;;61.50;49.75;;;;;5.83;97.42;103193.28;4865586;29;49977;-73
2023/02/09 11:43:11;;;;;;;;;63.33;52.33;;;;;5.86;94.98;103197.81;4857743;29;49959;-75
2023/02/09 11:45:50;;;;;;;;;63.33;52.67;;;;;5.87;93.06;103197.03;4863551;29;49881;-70
2023/02/09 11:48:26;;;;;;;;;68.33;54.67;;;;;5.96;92.82;103203.00;4858557;29;50075;-73
2023/02/09 11:51:00;;;;;;;;;62.25;52.75;;;;;6.02;92.61;103204.38;4856615;29;49788;-75
2023/02/09 11:53:52;;;;;;;;;61.67;50.33;;;;;5.88;89.31;103181.50;4858779;29;49936;-74
2023/02/09 11:56:23;;;;;;;;;63.00;47.75;;;;;5.84;89.41;103166.41;4859033;29;49984;-76
2023/02/09 11:59:13;;;;;;;;;67.00;51.50;;;;;6.10;88.40;103202.38;4858239;29;51763;-72
2023/02/09 12:01:42;;;;;;;;;61.25;50.00;;;;;6.17;86.54;103196.81;4857652;29;50044;-73
2023/02/09 12:04:18;;;;;;;;;63.75;51.50;;;;;5.92;84.81;103135.78;4858728;29;49744;-70
2023/02/09 12:06:49;;;;;;;;;62.75;49.50;;;;;6.06;85.10;103147.25;4861006;29;49960;-77
2023/02/09 12:09:41;;;;;;;;;64.25;51.25;;;;;6.41;86.34;103176.03;4876341;29;52036;-72
2023/02/09 12:12:32;;;;;;;;;56.75;45.75;;;;;6.49;87.75;103177.53;4873461;29;49854;-71
2023/02/09 12:15:25;;;;;;;;;59.75;49.75;;;;;6.46;84.25;103166.84;4873671;29;49455;-65
2023/02/09 12:18:00;;;;;;;;;46.25;40.00;;;;;6.42;81.51;103163.09;4857184;29;49771;-68
2023/02/09 12:20:34;;;;;;;;;44.25;34.50;;;;;6.66;82.40;103189.22;4859920;29;49961;-70
2023/02/09 12:23:14;;;;;;;;;56.50;46.25;;;;;6.46;77.11;103136.44;4862572;29;49822;-71
2023/02/09 12:26:14;;;;;;;;;47.50;41.00;;;;;6.57;75.74;103172.09;4870653;29;50072;-71
2023/02/09 12:28:39;;;;;;;;;54.00;42.75;;;;;6.73;73.50;103184.59;4855021;29;49910;-71
2023/02/09 12:31:07;;;;;;;;;47.00;40.00;;;;;6.76;73.63;103178.72;4857671;29;50384;-69
2023/02/09 12:33:39;;;;;;;;;53.50;44.75;;;;;6.68;74.61;103165.06;4858379;29;49584;-68
2023/02/09 12:36:14;;;;;;;;;51.50;43.25;;;;;6.88;74.17;103193.56;4858314;29;49902;-68
2023/02/09 12:38:49;;;;;;;;;57.25;42.25;;;;;6.91;73.18;103186.75;4872649;29;49334;-68
2023/02/09 12:41:16;;;;;;;;;61.00;47.00;;;;;6.79;74.35;103163.25;4870001;29;49740;-68
2023/02/09 12:43:44;;;;;;;;;52.00;44.00;;;;;7.00;75.77;103182.22;4883145;29;49790;-69
2023/02/09 12:46:18;;;;;;;;;55.50;45.00;;;;;7.06;73.85;103180.06;4874539;29;49433;-68
2023/02/09 12:48:51;;;;;;;;;62.00;46.50;;;;;6.99;71.15;103163.03;4875034;29;49778;-69
2023/02/09 12:51:38;;;;;;;;;58.75;48.25;;;;;7.15;71.27;103184.25;4872492;29;49789;-68
2023/02/09 12:54:29;;;;;;;;;53.50;46.75;;;;;7.12;70.99;103167.44;4856418;29;49852;-69
2023/02/09 12:57:15;;;;;;;;;56.25;44.50;;;;;7.26;71.39;103195.50;4845540;29;49989;-69
2023/02/09 13:00:03;;;;;;;;;62.00;46.75;;;;;7.27;69.48;103186.84;4857899;29;49974;-67
2023/02/09 13:02:47;;;;;;;;;62.25;49.25;;;;;7.35;68.57;103190.94;4857829;29;49887;-67
2023/02/09 13:05:24;;;;;;;;;57.75;45.25;;;;;7.48;68.95;103187.50;4868214;29;49868;-68
2023/02/09 13:08:05;;;;;;;;;61.00;47.25;;;;;7.53;65.88;103193.97;4857396;29;50054;-67
2023/02/09 13:10:43;;;;;;;;;47.50;41.50;;;;;7.49;66.82;103167.47;4871099;29;49754;-67
2023/02/09 13:13:11;;;;;;;;;60.75;46.25;;;;;7.63;66.51;103179.84;4857302;29;49895;-67
2023/02/09 13:16:04;;;;;;;;;61.75;46.25;;;;;7.67;64.56;103172.31;4857806;29;49748;-73
2023/02/09 13:19:17;;;;;;;;;57.25;46.25;;;;;7.68;66.88;103165.38;4857858;29;49701;-68
2023/02/09 13:22:20;;;;;;;;;62.75;49.25;;;;;7.81;63.97;103175.88;4858276;29;49749;-70
2023/02/09 13:24:57;;;;;;;;;56.00;45.00;;;;;7.77;65.10;103141.59;4856974;29;50143;-67
2023/02/09 13:27:25;;;;;;;;;53.75;45.50;;;;;7.93;63.78;103157.56;4856787;29;49645;-67
2023/02/09 13:29:52;;;;;;;;;51.25;43.50;;;;;8.00;65.25;103145.00;4878259;29;49877;-71
2023/02/09 13:32:36;;;;;;;;;53.00;41.50;;;;;8.13;62.17;103151.09;4874161;29;49844;-69
2023/02/09 13:35:17;;;;;;;;;50.25;43.75;;;;;7.98;60.85;103141.38;4888702;29;51713;-68
2023/02/09 13:37:51;;;;;;;;;55.50;46.50;;;;;8.24;63.15;103169.34;4888821;29;49652;-67
2023/02/09 13:40:27;;;;;;;;;58.75;46.00;;;;;8.31;61.73;103176.81;4863554;29;49743;-69
2023/02/09 13:42:59;;;;;;;;;52.75;43.50;;;;;8.36;60.22;103174.53;4856334;29;49835;-69
2023/02/09 13:45:26;;;;;;;;;57.75;43.25;;;;;8.26;60.79;103145.88;4855879;29;49769;-67
2023/02/09 13:47:51;;;;;;;;;53.50;42.00;;;;;8.33;60.70;103140.25;4870661;29;49951;-69
2023/02/09 13:50:23;;;;;;;;;56.25;44.00;;;;;8.48;59.08;103163.97;4856758;29;49748;-70
2023/02/09 13:52:49;;;;;;;;;49.75;40.25;;;;;8.50;58.35;103150.19;4857467;29;49953;-70
2023/02/09 13:55:21;;;;;;;;;37.25;36.25;;;;;8.49;58.04;103151.00;4857041;29;49891;-69
2023/02/09 13:58:00;;;;;;;;;54.50;40.25;;;;;8.44;56.58;103130.56;4856749;29;49792;-69
2023/02/09 14:00:39;;;;;;;;;48.25;40.00;;;;;8.64;54.93;103166.81;4856931;29;49661;-71
2023/02/09 14:03:15;;;;;;;;;40.25;35.50;;;;;8.40;55.81;103115.47;4857310;29;50083;-68
2023/02/09 14:05:52;;;;;;;;;53.50;43.50;;;;;8.55;55.37;103153.13;4851830;29;49977;-71
2023/02/09 14:08:19;;;;;;;;;39.75;34.50;;;;;8.71;55.40;103170.78;4857009;29;49829;-69
2023/02/09 14:11:01;;;;;;;;;47.25;38.50;;;;;8.69;56.87;103149.72;4856634;29;49580;-68
2023/02/09 14:13:33;;;;;;;;;45.25;41.25;;;;;8.57;56.20;103125.31;4857010;29;49738;-71
2023/02/09 14:16:06;;;;;;;;;47.50;39.75;;;;;8.81;54.18;103161.00;4856702;29;50699;-67
2023/02/09 14:18:50;;;;;;;;;37.75;37.25;;;;;8.85;55.19;103172.56;4856422;29;49810;-68
2023/02/09 14:21:28;;;;;;;;;55.75;40.50;;;;;8.91;55.84;103173.00;4856955;29;49980;-68
2023/02/09 14:23:59;;;;;;;;;55.50;42.75;;;;;8.96;55.93;103166.31;4871272;29;49766;-68
2023/02/09 14:26:34;;;;;;;;;54.75;39.50;;;;;9.01;54.85;103166.63;4856242;29;50760;-68
2023/02/09 14:29:28;;;;;;;;;49.50;39.75;;;;;8.97;53.34;103159.38;4856403;29;49530;-69
2023/02/09 14:31:57;;;;;;;;;39.25;36.25;;;;;8.47;53.46;103070.53;4871266;29;50005;-69
2023/02/09 14:34:27;;;;;;;;;45.25;37.50;;;;;9.08;50.91;103174.09;4856620;29;49905;-68
2023/02/09 14:37:14;;;;;;;;;49.00;40.00;;;;;9.07;51.64;103167.03;4856288;29;50772;-69
2023/02/09 14:40:06;;;;;;;;;51.75;40.00;;;;;9.09;51.87;103174.19;4856153;29;49711;-69
2023/02/09 14:42:38;;;;;;;;;55.50;46.00;;;;;9.08;52.29;103168.88;4856313;29;49298;-69
2023/02/09 14:45:12;;;;;;;;;48.50;41.50;;;;;9.14;52.47;103184.97;4870967;29;49731;-69
2023/02/09 14:47:43;;;;;;;;;56.25;41.50;;;;;9.14;51.48;103183.25;4856032;29;50724;-68
2023/02/09 14:50:14;;;;;;;;;58.00;43.25;;;;;8.94;50.77;103161.78;4856299;29;49943;-68
2023/02/09 14:52:42;;;;;;;;;47.25;41.50;;;;;9.15;51.09;103189.41;4869769;29;49861;-69
2023/02/09 14:55:18;;;;;;;;;55.25;37.25;;;;;8.95;50.36;103161.00;4856436;29;49974;-68
2023/02/09 14:57:44;;;;;;;;;58.50;43.25;;;;;9.00;51.25;103172.69;4855806;29;51270;-72
2023/02/09 15:00:19;;;;;;;;;50.75;39.75;;;;;9.16;51.50;103193.81;4856203;29;49944;-68
2023/02/09 15:02:45;;;;;;;;;56.75;47.25;;;;;9.13;52.22;103185.78;4856255;29;49553;-69
2023/02/09 15:05:10;;;;;;;;;60.25;50.00;;;;;9.12;52.47;103189.19;4856474;29;50515;-72
2023/02/09 15:07:40;;;;;;;;;55.25;45.75;;;;;9.04;53.23;103188.69;4856033;29;50545;-71
2023/02/09 15:10:25;;;;;;;;;63.75;49.00;;;;;8.94;53.29;103186.28;4856109;29;50091;-68
2023/02/09 15:12:50;;;;;;;;;67.25;50.00;;;;;8.77;53.53;103166.81;4850613;29;49803;-70
2023/02/09 15:15:18;;;;;;;;;53.00;43.25;;;;;8.77;53.46;103168.53;4856506;29;49788;-71
2023/02/09 15:17:43;;;;;;;;;57.00;47.25;;;;;8.93;54.90;103204.53;4855764;29;49831;-69
2023/02/09 15:20:12;;;;;;;;;53.50;43.75;;;;;8.73;55.77;103175.28;4856248;29;49916;-68
2023/02/09 15:22:37;;;;;;;;;55.50;44.75;;;;;8.68;56.25;103179.31;4850606;29;49808;-68
2023/02/09 15:25:03;;;;;;;;;58.25;46.25;;;;;8.86;57.29;103224.16;4856081;29;49785;-72
2023/02/09 15:27:34;;;;;;;;;60.75;49.25;;;;;8.85;57.69;103222.34;4869657;29;52296;-68
2023/02/09 15:30:01;;;;;;;;;66.00;47.25;;;;;8.82;58.03;103230.91;4855910;29;49910;-68
2023/02/09 15:32:27;;;;;;;;;61.75;47.50;;;;;8.63;58.48;103199.06;4855999;29;49961;-69
2023/02/09 15:34:53;;;;;;;;;58.50;50.25;;;;;8.67;59.84;103206.28;4870664;29;49998;-67
2023/02/09 15:37:24;;;;;;;;;59.00;48.00;;;;;8.66;61.00;103214.06;4855687;29;50800;-68
2023/02/09 15:39:53;;;;;;;;;57.75;48.75;;;;;8.66;62.97;103219.28;4855795;29;49940;-67
2023/02/09 15:48:08;;;;;;;;;67.00;50.00;;;;;8.65;69.01;103244.56;4865132;29;49852;-68
2023/02/09 15:50:37;;;;;;;;;61.75;49.25;;;;;8.25;70.38;103189.47;4886036;29;49523;-68
2023/02/09 15:53:05;;;;;;;;;68.75;52.00;;;;;8.54;72.43;103256.94;4873328;29;49827;-71
2023/02/09 15:55:32;;;;;;;;;61.50;49.00;;;;;8.19;75.29;103202.09;4871731;29;49707;-68
2023/02/09 15:57:58;;;;;;;;;65.75;51.50;;;;;8.25;78.93;103235.66;4862889;29;49868;-66
2023/02/09 16:00:26;;;;;;;;;64.00;50.75;;;;;8.34;82.40;103267.69;4854551;29;49928;-65
2023/02/09 16:02:54;;;;;;;;;62.25;51.50;;;;;8.41;82.37;103280.47;4855449;29;49752;-65
2023/02/09 16:05:20;;;;;;;;;72.50;55.50;;;;;8.31;84.08;103262.25;4853006;29;49854;-65
2023/02/09 16:07:49;;;;;;;;;63.25;51.00;;;;;8.16;84.92;103242.88;4857449;29;49904;-67
2023/02/09 16:10:20;;;;;;;;;66.75;54.75;;;;;8.19;85.25;103250.91;4857645;29;49848;-66
2023/02/09 16:12:46;;;;;;;;;61.50;49.50;;;;;8.23;86.64;103268.66;4857309;29;49828;-66
2023/02/09 16:15:16;;;;;;;;;64.00;49.50;;;;;8.24;87.34;103284.47;4871615;29;49938;-66
2023/02/09 16:17:42;;;;;;;;;65.75;51.75;;;;;8.16;86.88;103279.50;4858327;29;49920;-66
2023/02/09 16:20:08;;;;;;;;;61.25;50.00;;;;;8.23;87.73;103295.75;4858158;29;49868;-65
2023/02/09 16:22:34;;;;;;;;;67.00;52.50;;;;;7.92;88.14;103239.44;4857541;29;49798;-68
2023/02/09 16:24:59;;;;;;;;;66.50;53.00;;;;;8.14;88.70;103302.94;4856085;29;49712;-66
2023/02/09 16:27:27;;;;;;;;;70.75;51.75;;;;;8.12;88.99;103298.41;4858761;29;50732;-66
2023/02/09 16:29:53;;;;;;;;;64.50;50.25;;;;;7.98;89.59;103289.56;4857065;29;49781;-66
2023/02/09 16:32:23;;;;;;;;;66.00;51.50;;;;;7.96;89.96;103292.06;4876667;29;49898;-65
2023/02/09 16:34:50;;;;;;;;;72.75;56.00;;;;;7.95;91.28;103311.19;4857352;29;50042;-66
2023/02/09 16:37:20;;;;;;;;;70.50;55.00;;;;;7.69;92.01;103259.59;4856717;29;50882;-67
2023/02/09 16:39:46;;;;;;;;;70.00;55.33;;;;;7.00;91.71;103154.38;4853503;29;49850;-67
2023/02/09 16:42:14;;;;;;;;;67.50;52.75;;;;;7.59;92.76;103259.75;4856274;29;49809;-66
2023/02/09 16:44:40;;;;;;;;;61.50;48.50;;;;;7.51;94.10;103258.25;4856914;29;49919;-68
2023/02/09 16:47:19;;;;;;;;;67.75;51.25;;;;;7.56;94.91;103284.75;4855672;29;49701;-69
2023/02/09 16:49:57;;;;;;;;;64.25;52.50;;;;;7.01;95.50;103198.00;4854986;29;49853;-69
2023/02/09 16:52:24;;;;;;;;;64.50;52.75;;;;;7.47;97.19;103291.13;4856575;29;49762;-66
2023/02/09 16:54:56;;;;;;;;;70.50;55.00;;;;;7.17;96.71;103254.91;4856802;29;50101;-65
2023/02/09 16:57:23;;;;;;;;;67.25;51.75;;;;;7.36;98.10;103305.13;4870274;29;52419;-67
2023/02/09 16:59:49;;;;;;;;;65.00;53.50;;;;;7.33;98.60;103312.69;4855240;29;49918;-66
2023/02/09 17:02:27;;;;;;;;;62.50;51.00;;;;;7.27;98.82;103321.81;4856629;29;49832;-65
2023/02/09 17:04:52;;;;;;;;;63.25;51.25;;;;;6.89;100.00;103270.19;4856769;29;49758;-68
2023/02/09 17:07:18;;;;;;;;;67.67;53.67;;;;;6.88;100.00;103292.78;4855887;29;50726;-67
2023/02/09 17:09:43;;;;;;;;;67.00;52.50;;;;;7.08;100.00;103335.19;4856735;29;49817;-65
2023/02/09 17:12:12;;;;;;;;;66.75;51.25;;;;;6.94;100.00;103323.66;4856211;29;49907;-65
2023/02/09 17:14:37;;;;;;;;;69.00;53.50;;;;;6.72;100.00;103296.72;4854795;29;50064;-67
2023/02/09 17:17:02;;;;;;;;;68.75;54.75;;;;;6.78;100.00;103311.16;4856215;29;49893;-64
2023/02/09 17:19:28;;;;;;;;;67.00;53.33;;;;;6.54;100.00;103296.22;4855818;29;50084;-64
2023/02/09 17:21:57;;;;;;;;;70.33;56.33;;;;;6.61;100.00;103327.22;4859660;29;49801;-74
2023/02/09 17:24:22;;;;;;;;;63.50;52.25;;;;;6.48;100.00;103308.81;4886876;29;49748;-70
2023/02/09 17:26:48;;;;;;;;;75.00;57.33;;;;;6.00;100.00;103233.75;4862773;29;50285;-70
2023/02/09 17:29:13;;;;;;;;;74.67;57.33;;;;;6.60;100.00;103346.28;4857384;29;49981;-71
2023/02/09 17:31:40;;;;;;;;;69.50;56.75;;;;;6.43;100.00;103331.00;4856359;29;49906;-73
2023/02/09 17:34:08;;;;;;;;;74.50;55.50;;;;;6.27;100.00;103308.94;4856157;29;49772;-75
2023/02/09 17:36:36;;;;;;;;;65.50;53.75;;;;;6.23;100.00;103317.31;4864410;29;49868;-74
2023/02/09 17:39:02;;;;;;;;;74.25;55.50;;;;;5.44;100.00;103183.22;4866691;29;49927;-73
2023/02/09 17:41:43;;;;;;;;;71.33;56.67;;;;;6.30;100.00;103348.31;4858923;29;49770;-73
2023/02/09 17:44:20;;;;;;;;;73.00;56.75;;;;;6.25;100.00;103343.50;4856357;29;49881;-73
2023/02/09 17:46:47;;;;;;;;;71.67;57.67;;;;;5.57;100.00;103235.50;4855561;29;49726;-73